sensor_id;sensor_type;location;lat;lon;timestamp;P1;durP1;ratioP1;P2;durP2;ratioP2
24677;SDS011;12800;53.094;8.778;2023-05-07T00:01:35;13.80;;;10.90;;
24677;SDS011;12800;53.094;8.778;2023-05-07T00:04:01;14.13;;;10.60;;
24677;SDS011;12800;53.094;8.778;2023-05-07T00:06:28;12.90;;;10.70;;
24677;SDS011;12800;53.094;8.778;2023-05-07T00:08:54;12.20;;;10.17;;
24677;SDS011;12800;53.094;8.778;2023-05-07T00:11:21;11.70;;;9.90;;
24677;SDS011;12800;53.094;8.778;2023-05-07T00:13:47;12.20;;;9.60;;
24677;SDS011;12800;53.094;8.778;2023-05-07T00:16:12;12.60;;;9.57;;
24677;SDS011;12800;53.094;8.778;2023-05-07T00:18:38;11.93;;;9.67;;
24677;SDS011;12800;53.094;8.778;2023-05-07T00:21:04;13.03;;;9.63;;
24677;SDS011;12800;53.094;8.778;2023-05-07T00:23:29;14.43;;;10.10;;
24677;SDS011;12800;53.094;8.778;2023-05-07T00:25:55;14.07;;;10.70;;
24677;SDS011;12800;53.094;8.778;2023-05-07T00:28:21;14.30;;;10.67;;
24677;SDS011;12800;53.094;8.778;2023-05-07T00:30:46;13.20;;;10.27;;
24677;SDS011;12800;53.094;8.778;2023-05-07T00:33:12;13.07;;;10.17;;
24677;SDS011;12800;53.094;8.778;2023-05-07T00:35:38;12.83;;;10.10;;
24677;SDS011;12800;53.094;8.778;2023-05-07T00:38:03;11.70;;;9.73;;
24677;SDS011;12800;53.094;8.778;2023-05-07T00:40:29;10.27;;;9.03;;
24677;SDS011;12800;53.094;8.778;2023-05-07T00:42:55;13.77;;;10.53;;
24677;SDS011;12800;53.094;8.778;2023-05-07T00:45:23;14.57;;;10.43;;
24677;SDS011;12800;53.094;8.778;2023-05-07T00:47:55;12.00;;;9.43;;
24677;SDS011;12800;53.094;8.778;2023-05-07T00:50:25;13.17;;;10.00;;
24677;SDS011;12800;53.094;8.778;2023-05-07T00:52:52;12.00;;;9.60;;
24677;SDS011;12800;53.094;8.778;2023-05-07T00:55:18;12.17;;;9.87;;
24677;SDS011;12800;53.094;8.778;2023-05-07T00:57:44;13.67;;;9.73;;
24677;SDS011;12800;53.094;8.778;2023-05-07T01:00:10;12.83;;;9.47;;
24677;SDS011;12800;53.094;8.778;2023-05-07T01:02:40;11.33;;;9.53;;
24677;SDS011;12800;53.094;8.778;2023-05-07T01:05:07;11.97;;;9.93;;
24677;SDS011;12800;53.094;8.778;2023-05-07T01:07:37;11.20;;;9.10;;
24677;SDS011;12800;53.094;8.778;2023-05-07T01:10:04;12.20;;;9.97;;
24677;SDS011;12800;53.094;8.778;2023-05-07T01:12:31;13.77;;;10.97;;
24677;SDS011;12800;53.094;8.778;2023-05-07T01:14:58;14.13;;;10.63;;
24677;SDS011;12800;53.094;8.778;2023-05-07T01:17:23;12.70;;;10.47;;
24677;SDS011;12800;53.094;8.778;2023-05-07T01:19:49;13.87;;;10.73;;
24677;SDS011;12800;53.094;8.778;2023-05-07T01:22:16;12.87;;;10.47;;
24677;SDS011;12800;53.094;8.778;2023-05-07T01:24:45;12.10;;;9.60;;
24677;SDS011;12800;53.094;8.778;2023-05-07T01:27:11;13.10;;;10.80;;
24677;SDS011;12800;53.094;8.778;2023-05-07T01:29:37;12.60;;;10.57;;
24677;SDS011;12800;53.094;8.778;2023-05-07T01:32:03;12.37;;;10.57;;
24677;SDS011;12800;53.094;8.778;2023-05-07T01:34:30;23.50;;;16.60;;
24677;SDS011;12800;53.094;8.778;2023-05-07T01:36:57;15.67;;;11.20;;
24677;SDS011;12800;53.094;8.778;2023-05-07T01:39:24;12.97;;;10.17;;
24677;SDS011;12800;53.094;8.778;2023-05-07T01:41:52;14.03;;;11.03;;
24677;SDS011;12800;53.094;8.778;2023-05-07T01:44:20;13.20;;;10.47;;
24677;SDS011;12800;53.094;8.778;2023-05-07T01:46:46;16.40;;;10.17;;
24677;SDS011;12800;53.094;8.778;2023-05-07T01:49:13;13.27;;;9.93;;
24677;SDS011;12800;53.094;8.778;2023-05-07T01:51:39;14.57;;;10.70;;
24677;SDS011;12800;53.094;8.778;2023-05-07T01:54:05;12.40;;;9.77;;
24677;SDS011;12800;53.094;8.778;2023-05-07T01:56:31;13.03;;;10.27;;
24677;SDS011;12800;53.094;8.778;2023-05-07T01:58:57;13.50;;;9.90;;
24677;SDS011;12800;53.094;8.778;2023-05-07T02:01:22;12.70;;;10.00;;
24677;SDS011;12800;53.094;8.778;2023-05-07T02:03:48;12.77;;;9.83;;
24677;SDS011;12800;53.094;8.778;2023-05-07T02:06:14;12.73;;;9.73;;
24677;SDS011;12800;53.094;8.778;2023-05-07T02:08:40;12.80;;;10.10;;
24677;SDS011;12800;53.094;8.778;2023-05-07T02:11:05;14.97;;;10.17;;
24677;SDS011;12800;53.094;8.778;2023-05-07T02:13:32;14.40;;;10.07;;
24677;SDS011;12800;53.094;8.778;2023-05-07T02:16:02;12.10;;;10.07;;
24677;SDS011;12800;53.094;8.778;2023-05-07T02:18:28;13.33;;;9.83;;
24677;SDS011;12800;53.094;8.778;2023-05-07T02:20:54;12.20;;;8.93;;
24677;SDS011;12800;53.094;8.778;2023-05-07T02:23:20;11.97;;;9.70;;
24677;SDS011;12800;53.094;8.778;2023-05-07T02:25:45;13.10;;;8.93;;
24677;SDS011;12800;53.094;8.778;2023-05-07T02:28:11;11.67;;;9.63;;
24677;SDS011;12800;53.094;8.778;2023-05-07T02:30:37;12.23;;;8.73;;
24677;SDS011;12800;53.094;8.778;2023-05-07T02:33:02;14.17;;;9.83;;
24677;SDS011;12800;53.094;8.778;2023-05-07T02:35:28;12.73;;;9.87;;
24677;SDS011;12800;53.094;8.778;2023-05-07T02:37:54;12.60;;;9.30;;
24677;SDS011;12800;53.094;8.778;2023-05-07T02:40:19;13.33;;;9.33;;
24677;SDS011;12800;53.094;8.778;2023-05-07T02:42:45;11.43;;;9.10;;
24677;SDS011;12800;53.094;8.778;2023-05-07T02:45:11;12.27;;;9.17;;
24677;SDS011;12800;53.094;8.778;2023-05-07T02:47:36;12.60;;;9.97;;
24677;SDS011;12800;53.094;8.778;2023-05-07T02:50:02;13.67;;;9.27;;
24677;SDS011;12800;53.094;8.778;2023-05-07T02:52:28;23.20;;;10.43;;
24677;SDS011;12800;53.094;8.778;2023-05-07T02:54:54;13.70;;;9.67;;
24677;SDS011;12800;53.094;8.778;2023-05-07T02:57:20;12.20;;;10.23;;
24677;SDS011;12800;53.094;8.778;2023-05-07T02:59:46;14.90;;;9.93;;
24677;SDS011;12800;53.094;8.778;2023-05-07T03:02:11;15.07;;;10.00;;
24677;SDS011;12800;53.094;8.778;2023-05-07T03:04:38;12.63;;;9.80;;
24677;SDS011;12800;53.094;8.778;2023-05-07T03:07:04;13.10;;;9.77;;
24677;SDS011;12800;53.094;8.778;2023-05-07T03:09:30;14.10;;;9.87;;
24677;SDS011;12800;53.094;8.778;2023-05-07T03:11:56;17.40;;;10.13;;
24677;SDS011;12800;53.094;8.778;2023-05-07T03:14:22;13.93;;;9.93;;
24677;SDS011;12800;53.094;8.778;2023-05-07T03:16:48;12.93;;;9.67;;
24677;SDS011;12800;53.094;8.778;2023-05-07T03:19:14;14.37;;;9.53;;
24677;SDS011;12800;53.094;8.778;2023-05-07T03:21:40;16.30;;;9.93;;
24677;SDS011;12800;53.094;8.778;2023-05-07T03:24:05;13.30;;;9.63;;
24677;SDS011;12800;53.094;8.778;2023-05-07T03:26:31;12.23;;;9.03;;
24677;SDS011;12800;53.094;8.778;2023-05-07T03:28:57;13.33;;;9.87;;
24677;SDS011;12800;53.094;8.778;2023-05-07T03:31:22;16.13;;;11.00;;
24677;SDS011;12800;53.094;8.778;2023-05-07T03:36:21;14.40;;;10.67;;
24677;SDS011;12800;53.094;8.778;2023-05-07T03:38:47;12.77;;;10.27;;
24677;SDS011;12800;53.094;8.778;2023-05-07T03:41:13;12.47;;;9.50;;
24677;SDS011;12800;53.094;8.778;2023-05-07T03:43:39;15.83;;;10.17;;
24677;SDS011;12800;53.094;8.778;2023-05-07T03:46:05;12.87;;;9.53;;
24677;SDS011;12800;53.094;8.778;2023-05-07T03:48:30;14.27;;;10.63;;
24677;SDS011;12800;53.094;8.778;2023-05-07T03:50:57;13.27;;;9.70;;
24677;SDS011;12800;53.094;8.778;2023-05-07T03:53:23;14.13;;;9.67;;
24677;SDS011;12800;53.094;8.778;2023-05-07T03:55:49;12.37;;;8.73;;
24677;SDS011;12800;53.094;8.778;2023-05-07T03:58:14;13.73;;;9.43;;
24677;SDS011;12800;53.094;8.778;2023-05-07T04:00:40;13.03;;;9.13;;
24677;SDS011;12800;53.094;8.778;2023-05-07T04:03:06;11.93;;;8.77;;
24677;SDS011;12800;53.094;8.778;2023-05-07T04:05:32;12.23;;;9.63;;
24677;SDS011;12800;53.094;8.778;2023-05-07T04:07:58;12.87;;;9.03;;
24677;SDS011;12800;53.094;8.778;2023-05-07T04:10:24;11.50;;;9.17;;
24677;SDS011;12800;53.094;8.778;2023-05-07T04:12:50;10.83;;;8.63;;
24677;SDS011;12800;53.094;8.778;2023-05-07T04:15:15;11.33;;;7.83;;
24677;SDS011;12800;53.094;8.778;2023-05-07T04:17:41;11.27;;;8.43;;
24677;SDS011;12800;53.094;8.778;2023-05-07T04:20:08;10.03;;;7.80;;
24677;SDS011;12800;53.094;8.778;2023-05-07T04:22:35;13.67;;;9.30;;
24677;SDS011;12800;53.094;8.778;2023-05-07T04:25:01;12.60;;;8.67;;
24677;SDS011;12800;53.094;8.778;2023-05-07T04:27:27;12.40;;;8.17;;
24677;SDS011;12800;53.094;8.778;2023-05-07T04:29:53;9.83;;;7.93;;
24677;SDS011;12800;53.094;8.778;2023-05-07T04:32:21;11.43;;;7.60;;
24677;SDS011;12800;53.094;8.778;2023-05-07T04:34:47;9.83;;;7.23;;
24677;SDS011;12800;53.094;8.778;2023-05-07T04:37:12;10.13;;;8.07;;
24677;SDS011;12800;53.094;8.778;2023-05-07T04:39:38;10.43;;;8.03;;
24677;SDS011;12800;53.094;8.778;2023-05-07T04:42:04;9.23;;;7.40;;
24677;SDS011;12800;53.094;8.778;2023-05-07T04:44:30;10.17;;;7.80;;
24677;SDS011;12800;53.094;8.778;2023-05-07T04:46:56;9.37;;;7.03;;
24677;SDS011;12800;53.094;8.778;2023-05-07T04:49:22;11.63;;;8.10;;
24677;SDS011;12800;53.094;8.778;2023-05-07T04:51:47;10.23;;;8.30;;
24677;SDS011;12800;53.094;8.778;2023-05-07T04:54:13;10.37;;;7.73;;
24677;SDS011;12800;53.094;8.778;2023-05-07T04:56:39;11.07;;;8.57;;
24677;SDS011;12800;53.094;8.778;2023-05-07T04:59:04;11.73;;;8.30;;
24677;SDS011;12800;53.094;8.778;2023-05-07T05:01:30;10.83;;;8.27;;
24677;SDS011;12800;53.094;8.778;2023-05-07T05:03:56;10.90;;;7.70;;
24677;SDS011;12800;53.094;8.778;2023-05-07T05:06:22;9.90;;;7.70;;
24677;SDS011;12800;53.094;8.778;2023-05-07T05:08:47;10.87;;;8.03;;
24677;SDS011;12800;53.094;8.778;2023-05-07T05:11:13;10.67;;;7.93;;
24677;SDS011;12800;53.094;8.778;2023-05-07T05:13:39;9.83;;;7.50;;
24677;SDS011;12800;53.094;8.778;2023-05-07T05:16:05;9.67;;;7.73;;
24677;SDS011;12800;53.094;8.778;2023-05-07T05:18:31;7.63;;;6.77;;
24677;SDS011;12800;53.094;8.778;2023-05-07T05:20:57;11.60;;;8.60;;
24677;SDS011;12800;53.094;8.778;2023-05-07T05:23:22;8.87;;;7.00;;
24677;SDS011;12800;53.094;8.778;2023-05-07T05:25:48;8.73;;;7.37;;
24677;SDS011;12800;53.094;8.778;2023-05-07T05:28:13;11.03;;;7.57;;
24677;SDS011;12800;53.094;8.778;2023-05-07T05:30:39;10.00;;;7.67;;
24677;SDS011;12800;53.094;8.778;2023-05-07T05:33:05;8.57;;;7.10;;
24677;SDS011;12800;53.094;8.778;2023-05-07T05:35:30;8.90;;;7.57;;
24677;SDS011;12800;53.094;8.778;2023-05-07T05:37:56;8.30;;;6.70;;
24677;SDS011;12800;53.094;8.778;2023-05-07T05:40:22;8.67;;;7.07;;
24677;SDS011;12800;53.094;8.778;2023-05-07T05:42:48;10.00;;;7.13;;
24677;SDS011;12800;53.094;8.778;2023-05-07T05:45:13;8.87;;;6.47;;
24677;SDS011;12800;53.094;8.778;2023-05-07T05:47:39;8.43;;;6.27;;
24677;SDS011;12800;53.094;8.778;2023-05-07T05:50:05;8.17;;;7.03;;
24677;SDS011;12800;53.094;8.778;2023-05-07T05:52:31;8.37;;;6.77;;
24677;SDS011;12800;53.094;8.778;2023-05-07T05:54:57;8.03;;;6.87;;
24677;SDS011;12800;53.094;8.778;2023-05-07T05:57:22;8.13;;;6.43;;
24677;SDS011;12800;53.094;8.778;2023-05-07T05:59:48;7.03;;;6.33;;
24677;SDS011;12800;53.094;8.778;2023-05-07T06:02:14;9.80;;;6.70;;
24677;SDS011;12800;53.094;8.778;2023-05-07T06:04:39;8.77;;;6.77;;
24677;SDS011;12800;53.094;8.778;2023-05-07T06:07:05;9.33;;;6.40;;
24677;SDS011;12800;53.094;8.778;2023-05-07T06:09:31;8.80;;;6.13;;
24677;SDS011;12800;53.094;8.778;2023-05-07T06:11:56;7.20;;;6.17;;
24677;SDS011;12800;53.094;8.778;2023-05-07T06:14:22;7.40;;;6.70;;
24677;SDS011;12800;53.094;8.778;2023-05-07T06:16:48;7.00;;;6.30;;
24677;SDS011;12800;53.094;8.778;2023-05-07T06:19:13;8.87;;;6.40;;
24677;SDS011;12800;53.094;8.778;2023-05-07T06:21:39;7.23;;;6.13;;
24677;SDS011;12800;53.094;8.778;2023-05-07T06:24:05;7.67;;;6.37;;
24677;SDS011;12800;53.094;8.778;2023-05-07T06:26:31;7.70;;;6.10;;
24677;SDS011;12800;53.094;8.778;2023-05-07T06:28:56;8.07;;;6.40;;
24677;SDS011;12800;53.094;8.778;2023-05-07T06:31:22;6.90;;;6.10;;
24677;SDS011;12800;53.094;8.778;2023-05-07T06:33:48;6.60;;;5.77;;
24677;SDS011;12800;53.094;8.778;2023-05-07T06:36:14;7.10;;;6.30;;
24677;SDS011;12800;53.094;8.778;2023-05-07T06:38:40;6.00;;;5.40;;
24677;SDS011;12800;53.094;8.778;2023-05-07T06:41:06;7.00;;;5.43;;
24677;SDS011;12800;53.094;8.778;2023-05-07T06:43:32;6.07;;;5.20;;
24677;SDS011;12800;53.094;8.778;2023-05-07T06:45:58;7.03;;;6.30;;
24677;SDS011;12800;53.094;8.778;2023-05-07T06:48:24;6.43;;;5.70;;
24677;SDS011;12800;53.094;8.778;2023-05-07T06:50:49;9.27;;;6.20;;
24677;SDS011;12800;53.094;8.778;2023-05-07T06:53:15;7.93;;;6.20;;
24677;SDS011;12800;53.094;8.778;2023-05-07T06:55:41;6.00;;;5.40;;
24677;SDS011;12800;53.094;8.778;2023-05-07T06:58:06;6.00;;;5.30;;
24677;SDS011;12800;53.094;8.778;2023-05-07T07:00:32;6.43;;;5.20;;
24677;SDS011;12800;53.094;8.778;2023-05-07T07:02:58;6.27;;;5.40;;
24677;SDS011;12800;53.094;8.778;2023-05-07T07:05:25;7.53;;;5.83;;
24677;SDS011;12800;53.094;8.778;2023-05-07T07:07:51;6.67;;;5.97;;
24677;SDS011;12800;53.094;8.778;2023-05-07T07:10:19;5.77;;;5.17;;
24677;SDS011;12800;53.094;8.778;2023-05-07T07:12:45;6.40;;;5.73;;
24677;SDS011;12800;53.094;8.778;2023-05-07T07:15:11;6.67;;;5.27;;
24677;SDS011;12800;53.094;8.778;2023-05-07T07:17:38;7.03;;;5.13;;
24677;SDS011;12800;53.094;8.778;2023-05-07T07:20:04;7.50;;;5.60;;
24677;SDS011;12800;53.094;8.778;2023-05-07T07:22:30;5.53;;;5.03;;
24677;SDS011;12800;53.094;8.778;2023-05-07T07:24:55;7.80;;;5.67;;
24677;SDS011;12800;53.094;8.778;2023-05-07T07:27:21;6.47;;;4.93;;
24677;SDS011;12800;53.094;8.778;2023-05-07T07:29:47;6.00;;;5.00;;
24677;SDS011;12800;53.094;8.778;2023-05-07T07:32:12;7.63;;;6.30;;
24677;SDS011;12800;53.094;8.778;2023-05-07T07:34:38;6.27;;;5.47;;
24677;SDS011;12800;53.094;8.778;2023-05-07T07:37:03;7.60;;;6.00;;
24677;SDS011;12800;53.094;8.778;2023-05-07T07:39:33;7.73;;;6.57;;
24677;SDS011;12800;53.094;8.778;2023-05-07T07:41:59;6.50;;;5.80;;
24677;SDS011;12800;53.094;8.778;2023-05-07T07:44:25;6.40;;;5.57;;
24677;SDS011;12800;53.094;8.778;2023-05-07T07:46:52;7.20;;;6.17;;
24677;SDS011;12800;53.094;8.778;2023-05-07T07:49:17;6.80;;;5.73;;
24677;SDS011;12800;53.094;8.778;2023-05-07T07:51:43;7.17;;;5.60;;
24677;SDS011;12800;53.094;8.778;2023-05-07T07:54:09;7.83;;;5.83;;
24677;SDS011;12800;53.094;8.778;2023-05-07T07:56:34;5.57;;;5.00;;
24677;SDS011;12800;53.094;8.778;2023-05-07T07:59:00;6.47;;;5.87;;
24677;SDS011;12800;53.094;8.778;2023-05-07T08:01:26;6.27;;;5.60;;
24677;SDS011;12800;53.094;8.778;2023-05-07T08:03:54;6.23;;;5.47;;
24677;SDS011;12800;53.094;8.778;2023-05-07T08:06:20;7.13;;;6.03;;
24677;SDS011;12800;53.094;8.778;2023-05-07T08:08:45;5.93;;;4.83;;
24677;SDS011;12800;53.094;8.778;2023-05-07T08:11:11;5.77;;;5.17;;
24677;SDS011;12800;53.094;8.778;2023-05-07T08:13:37;5.43;;;4.80;;
24677;SDS011;12800;53.094;8.778;2023-05-07T08:16:03;5.63;;;5.10;;
24677;SDS011;12800;53.094;8.778;2023-05-07T08:18:29;5.38;;;4.55;;
24677;SDS011;12800;53.094;8.778;2023-05-07T08:20:55;5.63;;;4.70;;
24677;SDS011;12800;53.094;8.778;2023-05-07T08:23:21;5.40;;;4.83;;
24677;SDS011;12800;53.094;8.778;2023-05-07T08:25:47;7.53;;;4.97;;
24677;SDS011;12800;53.094;8.778;2023-05-07T08:28:14;5.55;;;4.70;;
24677;SDS011;12800;53.094;8.778;2023-05-07T08:30:40;5.50;;;4.43;;
24677;SDS011;12800;53.094;8.778;2023-05-07T08:33:06;5.63;;;4.63;;
24677;SDS011;12800;53.094;8.778;2023-05-07T08:35:33;5.33;;;4.83;;
24677;SDS011;12800;53.094;8.778;2023-05-07T08:37:59;5.05;;;4.15;;
24677;SDS011;12800;53.094;8.778;2023-05-07T08:40:24;4.97;;;4.47;;
24677;SDS011;12800;53.094;8.778;2023-05-07T08:42:52;5.40;;;4.53;;
24677;SDS011;12800;53.094;8.778;2023-05-07T08:45:18;5.88;;;5.03;;
24677;SDS011;12800;53.094;8.778;2023-05-07T08:47:52;7.28;;;5.82;;
24677;SDS011;12800;53.094;8.778;2023-05-07T08:50:23;6.33;;;5.27;;
24677;SDS011;12800;53.094;8.778;2023-05-07T08:52:49;5.07;;;4.40;;
24677;SDS011;12800;53.094;8.778;2023-05-07T08:55:15;5.70;;;4.72;;
24677;SDS011;12800;53.094;8.778;2023-05-07T08:57:41;5.45;;;4.20;;
24677;SDS011;12800;53.094;8.778;2023-05-07T09:00:07;5.88;;;4.53;;
24677;SDS011;12800;53.094;8.778;2023-05-07T09:02:33;11.60;;;8.23;;
24677;SDS011;12800;53.094;8.778;2023-05-07T09:05:00;6.25;;;5.05;;
24677;SDS011;12800;53.094;8.778;2023-05-07T09:07:26;5.90;;;4.43;;
24677;SDS011;12800;53.094;8.778;2023-05-07T09:09:52;8.82;;;6.32;;
24677;SDS011;12800;53.094;8.778;2023-05-07T09:12:20;13.43;;;10.77;;
24677;SDS011;12800;53.094;8.778;2023-05-07T09:14:46;8.25;;;4.68;;
24677;SDS011;12800;53.094;8.778;2023-05-07T09:17:12;6.05;;;4.75;;
24677;SDS011;12800;53.094;8.778;2023-05-07T09:19:38;5.13;;;4.63;;
24677;SDS011;12800;53.094;8.778;2023-05-07T09:22:05;5.10;;;4.60;;
24677;SDS011;12800;53.094;8.778;2023-05-07T09:24:32;5.97;;;4.90;;
24677;SDS011;12800;53.094;8.778;2023-05-07T09:27:06;5.68;;;4.85;;
24677;SDS011;12800;53.094;8.778;2023-05-07T09:29:33;7.38;;;4.72;;
24677;SDS011;12800;53.094;8.778;2023-05-07T09:32:05;5.57;;;4.70;;
24677;SDS011;12800;53.094;8.778;2023-05-07T09:34:31;4.88;;;4.35;;
24677;SDS011;12800;53.094;8.778;2023-05-07T09:37:01;6.40;;;5.03;;
24677;SDS011;12800;53.094;8.778;2023-05-07T09:39:38;8.57;;;5.82;;
24677;SDS011;12800;53.094;8.778;2023-05-07T09:42:05;6.40;;;5.80;;
24677;SDS011;12800;53.094;8.778;2023-05-07T09:44:31;5.50;;;4.95;;
24677;SDS011;12800;53.094;8.778;2023-05-07T09:46:57;6.00;;;5.18;;
24677;SDS011;12800;53.094;8.778;2023-05-07T09:49:25;5.95;;;5.32;;
24677;SDS011;12800;53.094;8.778;2023-05-07T09:51:55;9.65;;;7.47;;
24677;SDS011;12800;53.094;8.778;2023-05-07T09:54:21;6.80;;;5.15;;
24677;SDS011;12800;53.094;8.778;2023-05-07T09:56:48;9.05;;;6.85;;
24677;SDS011;12800;53.094;8.778;2023-05-07T09:59:14;9.05;;;5.57;;
24677;SDS011;12800;53.094;8.778;2023-05-07T10:01:41;7.97;;;5.55;;
24677;SDS011;12800;53.094;8.778;2023-05-07T10:04:08;6.53;;;5.30;;
24677;SDS011;12800;53.094;8.778;2023-05-07T10:06:35;6.57;;;5.70;;
24677;SDS011;12800;53.094;8.778;2023-05-07T10:09:02;10.43;;;8.25;;
24677;SDS011;12800;53.094;8.778;2023-05-07T10:11:31;6.43;;;5.65;;
24677;SDS011;12800;53.094;8.778;2023-05-07T10:13:58;13.43;;;10.30;;
24677;SDS011;12800;53.094;8.778;2023-05-07T10:16:27;7.10;;;5.75;;
24677;SDS011;12800;53.094;8.778;2023-05-07T10:18:57;9.38;;;6.03;;
24677;SDS011;12800;53.094;8.778;2023-05-07T10:21:23;6.82;;;5.72;;
24677;SDS011;12800;53.094;8.778;2023-05-07T10:24:13;6.18;;;5.57;;
24677;SDS011;12800;53.094;8.778;2023-05-07T10:26:42;7.25;;;5.55;;
24677;SDS011;12800;53.094;8.778;2023-05-07T10:31:58;6.22;;;5.63;;
24677;SDS011;12800;53.094;8.778;2023-05-07T10:34:43;5.93;;;5.15;;
24677;SDS011;12800;53.094;8.778;2023-05-07T10:37:12;6.97;;;5.72;;
24677;SDS011;12800;53.094;8.778;2023-05-07T10:39:38;8.32;;;5.88;;
24677;SDS011;12800;53.094;8.778;2023-05-07T10:42:08;6.45;;;5.75;;
24677;SDS011;12800;53.094;8.778;2023-05-07T10:44:37;6.15;;;5.55;;
24677;SDS011;12800;53.094;8.778;2023-05-07T10:47:12;6.78;;;5.47;;
24677;SDS011;12800;53.094;8.778;2023-05-07T10:57:50;9.07;;;6.03;;
24677;SDS011;12800;53.094;8.778;2023-05-07T11:05:25;7.28;;;6.03;;
24677;SDS011;12800;53.094;8.778;2023-05-07T11:07:55;8.60;;;6.10;;
24677;SDS011;12800;53.094;8.778;2023-05-07T11:16:19;7.90;;;6.45;;
24677;SDS011;12800;53.094;8.778;2023-05-07T11:18:50;8.10;;;6.53;;
24677;SDS011;12800;53.094;8.778;2023-05-07T11:21:36;6.20;;;5.60;;
24677;SDS011;12800;53.094;8.778;2023-05-07T11:24:03;6.57;;;5.88;;
24677;SDS011;12800;53.094;8.778;2023-05-07T11:26:30;7.93;;;6.10;;
24677;SDS011;12800;53.094;8.778;2023-05-07T11:29:10;8.50;;;7.40;;
24677;SDS011;12800;53.094;8.778;2023-05-07T11:31:36;6.60;;;5.85;;
24677;SDS011;12800;53.094;8.778;2023-05-07T11:34:03;7.55;;;6.18;;
24677;SDS011;12800;53.094;8.778;2023-05-07T11:36:31;7.97;;;6.78;;
24677;SDS011;12800;53.094;8.778;2023-05-07T11:38:57;7.75;;;6.13;;
24677;SDS011;12800;53.094;8.778;2023-05-07T11:41:32;6.25;;;5.63;;
24677;SDS011;12800;53.094;8.778;2023-05-07T11:43:59;6.35;;;5.40;;
24677;SDS011;12800;53.094;8.778;2023-05-07T11:46:26;5.97;;;5.22;;
24677;SDS011;12800;53.094;8.778;2023-05-07T11:48:52;6.57;;;5.85;;
24677;SDS011;12800;53.094;8.778;2023-05-07T11:51:21;6.18;;;5.50;;
24677;SDS011;12800;53.094;8.778;2023-05-07T11:53:51;8.18;;;6.43;;
24677;SDS011;12800;53.094;8.778;2023-05-07T11:56:18;5.60;;;5.00;;
24677;SDS011;12800;53.094;8.778;2023-05-07T11:58:44;6.22;;;5.63;;
24677;SDS011;12800;53.094;8.778;2023-05-07T12:01:12;6.72;;;5.88;;
24677;SDS011;12800;53.094;8.778;2023-05-07T12:03:41;6.35;;;5.75;;
24677;SDS011;12800;53.094;8.778;2023-05-07T12:06:08;6.55;;;5.40;;
24677;SDS011;12800;53.094;8.778;2023-05-07T12:08:38;6.18;;;5.57;;
24677;SDS011;12800;53.094;8.778;2023-05-07T12:11:09;5.55;;;5.05;;
24677;SDS011;12800;53.094;8.778;2023-05-07T12:13:38;6.20;;;5.60;;
24677;SDS011;12800;53.094;8.778;2023-05-07T12:16:05;5.97;;;5.38;;
24677;SDS011;12800;53.094;8.778;2023-05-07T12:18:31;7.60;;;5.25;;
24677;SDS011;12800;53.094;8.778;2023-05-07T12:20:58;6.18;;;5.43;;
24677;SDS011;12800;53.094;8.778;2023-05-07T12:23:24;5.82;;;4.85;;
24677;SDS011;12800;53.094;8.778;2023-05-07T12:25:50;5.57;;;5.00;;
24677;SDS011;12800;53.094;8.778;2023-05-07T12:28:16;8.23;;;5.28;;
24677;SDS011;12800;53.094;8.778;2023-05-07T12:30:46;5.72;;;5.15;;
24677;SDS011;12800;53.094;8.778;2023-05-07T12:33:16;5.50;;;4.97;;
24677;SDS011;12800;53.094;8.778;2023-05-07T12:35:43;6.13;;;5.25;;
24677;SDS011;12800;53.094;8.778;2023-05-07T12:38:13;5.28;;;4.78;;
24677;SDS011;12800;53.094;8.778;2023-05-07T12:40:40;6.75;;;5.78;;
24677;SDS011;12800;53.094;8.778;2023-05-07T12:43:08;5.88;;;5.30;;
24677;SDS011;12800;53.094;8.778;2023-05-07T12:45:50;5.22;;;4.80;;
24677;SDS011;12800;53.094;8.778;2023-05-07T12:48:19;6.40;;;5.53;;
24677;SDS011;12800;53.094;8.778;2023-05-07T12:50:45;5.35;;;4.85;;
24677;SDS011;12800;53.094;8.778;2023-05-07T12:53:14;6.07;;;5.25;;
24677;SDS011;12800;53.094;8.778;2023-05-07T12:55:44;5.38;;;4.88;;
24677;SDS011;12800;53.094;8.778;2023-05-07T12:58:14;5.72;;;5.00;;
24677;SDS011;12800;53.094;8.778;2023-05-07T13:00:41;5.22;;;4.72;;
24677;SDS011;12800;53.094;8.778;2023-05-07T13:03:08;9.70;;;5.85;;
24677;SDS011;12800;53.094;8.778;2023-05-07T13:05:34;6.65;;;4.80;;
24677;SDS011;12800;53.094;8.778;2023-05-07T13:08:00;5.35;;;4.85;;
24677;SDS011;12800;53.094;8.778;2023-05-07T13:10:26;4.80;;;4.30;;
24677;SDS011;12800;53.094;8.778;2023-05-07T13:12:52;4.80;;;4.40;;
24677;SDS011;12800;53.094;8.778;2023-05-07T13:15:18;5.50;;;4.85;;
24677;SDS011;12800;53.094;8.778;2023-05-07T13:17:44;5.18;;;4.68;;
24677;SDS011;12800;53.094;8.778;2023-05-07T13:20:10;4.75;;;4.30;;
24677;SDS011;12800;53.094;8.778;2023-05-07T13:22:37;4.93;;;4.40;;
24677;SDS011;12800;53.094;8.778;2023-05-07T13:25:04;5.30;;;4.40;;
24677;SDS011;12800;53.094;8.778;2023-05-07T13:27:30;4.60;;;4.20;;
24677;SDS011;12800;53.094;8.778;2023-05-07T13:29:56;5.10;;;4.38;;
24677;SDS011;12800;53.094;8.778;2023-05-07T13:32:22;4.70;;;4.15;;
24677;SDS011;12800;53.094;8.778;2023-05-07T13:34:47;5.78;;;4.20;;
24677;SDS011;12800;53.094;8.778;2023-05-07T13:37:13;3.85;;;3.55;;
24677;SDS011;12800;53.094;8.778;2023-05-07T13:39:39;4.55;;;4.10;;
24677;SDS011;12800;53.094;8.778;2023-05-07T13:42:05;5.97;;;4.28;;
24677;SDS011;12800;53.094;8.778;2023-05-07T13:44:31;6.25;;;4.30;;
24677;SDS011;12800;53.094;8.778;2023-05-07T13:46:58;4.25;;;3.67;;
24677;SDS011;12800;53.094;8.778;2023-05-07T13:49:23;4.53;;;3.90;;
24677;SDS011;12800;53.094;8.778;2023-05-07T13:51:49;5.13;;;3.85;;
24677;SDS011;12800;53.094;8.778;2023-05-07T13:54:15;5.25;;;3.85;;
24677;SDS011;12800;53.094;8.778;2023-05-07T13:56:41;4.85;;;3.88;;
24677;SDS011;12800;53.094;8.778;2023-05-07T13:59:06;4.20;;;3.80;;
24677;SDS011;12800;53.094;8.778;2023-05-07T14:01:32;4.32;;;3.92;;
24677;SDS011;12800;53.094;8.778;2023-05-07T14:03:58;4.32;;;3.60;;
24677;SDS011;12800;53.094;8.778;2023-05-07T14:06:24;4.82;;;4.30;;
24677;SDS011;12800;53.094;8.778;2023-05-07T14:08:50;7.05;;;4.03;;
24677;SDS011;12800;53.094;8.778;2023-05-07T14:11:16;4.13;;;3.72;;
24677;SDS011;12800;53.094;8.778;2023-05-07T14:13:42;4.75;;;3.78;;
24677;SDS011;12800;53.094;8.778;2023-05-07T14:16:07;3.85;;;3.45;;
24677;SDS011;12800;53.094;8.778;2023-05-07T14:18:33;5.00;;;3.88;;
24677;SDS011;12800;53.094;8.778;2023-05-07T14:21:00;4.38;;;3.70;;
24677;SDS011;12800;53.094;8.778;2023-05-07T14:23:25;3.65;;;3.35;;
24677;SDS011;12800;53.094;8.778;2023-05-07T14:25:51;3.72;;;3.35;;
24677;SDS011;12800;53.094;8.778;2023-05-07T14:28:18;4.45;;;4.05;;
24677;SDS011;12800;53.094;8.778;2023-05-07T14:30:44;4.10;;;3.70;;
24677;SDS011;12800;53.094;8.778;2023-05-07T14:33:10;8.65;;;6.80;;
24677;SDS011;12800;53.094;8.778;2023-05-07T14:35:35;5.28;;;4.75;;
24677;SDS011;12800;53.094;8.778;2023-05-07T14:38:01;4.07;;;3.67;;
24677;SDS011;12800;53.094;8.778;2023-05-07T14:40:27;4.35;;;3.95;;
24677;SDS011;12800;53.094;8.778;2023-05-07T14:42:53;4.55;;;4.10;;
24677;SDS011;12800;53.094;8.778;2023-05-07T14:45:18;6.53;;;5.70;;
24677;SDS011;12800;53.094;8.778;2023-05-07T14:47:45;25.95;;;18.55;;
24677;SDS011;12800;53.094;8.778;2023-05-07T14:50:11;5.30;;;4.72;;
24677;SDS011;12800;53.094;8.778;2023-05-07T14:52:37;4.35;;;4.00;;
24677;SDS011;12800;53.094;8.778;2023-05-07T14:55:02;5.03;;;4.53;;
24677;SDS011;12800;53.094;8.778;2023-05-07T14:57:28;4.47;;;4.07;;
24677;SDS011;12800;53.094;8.778;2023-05-07T14:59:55;4.05;;;3.65;;
24677;SDS011;12800;53.094;8.778;2023-05-07T15:02:20;4.90;;;4.40;;